createdAt,value
2023-04-17T00:01:25.816Z,20.30
2023-04-17T00:03:53.015Z,20.30
2023-04-17T00:06:19.872Z,20.30
2023-04-17T00:08:46.738Z,20.30
2023-04-17T00:11:13.387Z,20.30
2023-04-17T00:13:40.199Z,20.30
2023-04-17T00:16:08.293Z,20.30
2023-04-17T00:18:34.923Z,20.30
2023-04-17T00:21:01.549Z,20.40
2023-04-17T00:23:28.256Z,20.30
2023-04-17T00:25:54.933Z,20.30
2023-04-17T00:28:21.562Z,20.30
2023-04-17T00:30:48.204Z,20.40
2023-04-17T00:33:14.851Z,20.40
2023-04-17T00:35:41.503Z,20.40
2023-04-17T00:38:09.205Z,20.40
2023-04-17T00:40:36.176Z,20.30
2023-04-17T00:43:04.409Z,20.40
2023-04-17T00:45:31.249Z,20.40
2023-04-17T00:47:59.602Z,20.40
2023-04-17T00:50:28.288Z,20.40
2023-04-17T00:52:55.520Z,20.40
2023-04-17T00:55:22.376Z,20.30
2023-04-17T00:57:49.533Z,20.40
2023-04-17T01:00:18.005Z,20.40
2023-04-17T01:02:45.902Z,20.40
2023-04-17T01:05:13.094Z,20.40
2023-04-17T01:07:41.159Z,20.40
2023-04-17T01:10:08.694Z,20.40
2023-04-17T01:12:36.495Z,20.40
2023-04-17T01:15:03.671Z,20.40
2023-04-17T01:17:30.416Z,20.40
2023-04-17T01:19:57.840Z,20.40
2023-04-17T01:22:24.488Z,20.40
2023-04-17T01:24:51.128Z,20.40
2023-04-17T01:27:17.778Z,20.40
2023-04-17T01:29:44.525Z,20.40
2023-04-17T01:32:11.253Z,20.40
2023-04-17T01:34:37.861Z,20.40
2023-04-17T01:37:04.732Z,20.40
2023-04-17T01:39:31.628Z,20.40
2023-04-17T01:41:58.291Z,20.40
2023-04-17T01:44:25.070Z,20.40
2023-04-17T01:46:51.835Z,20.40
2023-04-17T01:49:18.521Z,20.40
2023-04-17T01:51:45.354Z,20.40
2023-04-17T01:54:12.023Z,20.40
2023-04-17T01:56:38.717Z,20.40
2023-04-17T01:59:05.635Z,20.30
2023-04-17T02:01:32.653Z,20.40
2023-04-17T02:03:59.568Z,20.40
2023-04-17T02:06:27.396Z,20.40
2023-04-17T02:08:54.111Z,20.40
2023-04-17T02:11:21.056Z,20.40
2023-04-17T02:13:47.660Z,20.40
2023-04-17T02:16:14.455Z,20.40
2023-04-17T02:18:41.344Z,20.40
2023-04-17T02:21:09.615Z,20.40
2023-04-17T02:23:36.231Z,20.40
2023-04-17T02:26:02.920Z,20.40
2023-04-17T02:28:29.518Z,20.40
2023-04-17T02:30:56.167Z,20.40
2023-04-17T02:33:23.012Z,20.40
2023-04-17T02:35:49.827Z,20.40
2023-04-17T02:38:16.508Z,20.40
2023-04-17T02:40:43.082Z,20.40
2023-04-17T02:43:09.794Z,20.40
2023-04-17T02:45:36.586Z,20.40
2023-04-17T02:48:03.283Z,20.40
2023-04-17T02:50:30.016Z,20.40
2023-04-17T02:52:56.645Z,20.40
2023-04-17T02:55:24.333Z,20.40
2023-04-17T02:57:51.157Z,20.40
2023-04-17T03:00:17.907Z,20.40
2023-04-17T03:02:44.823Z,20.40
2023-04-17T03:05:14.871Z,20.50
2023-04-17T03:07:41.564Z,20.40
2023-04-17T03:10:09.367Z,20.40
2023-04-17T03:12:36.106Z,20.50
2023-04-17T03:15:02.813Z,20.50
2023-04-17T03:17:29.499Z,20.50
2023-04-17T03:19:56.253Z,20.50
2023-04-17T03:22:22.864Z,20.40
2023-04-17T03:24:49.459Z,20.50
2023-04-17T03:27:16.114Z,20.50
2023-04-17T03:29:42.684Z,20.50
2023-04-17T03:32:09.381Z,20.50
2023-04-17T03:34:36.114Z,20.50
2023-04-17T03:37:02.766Z,20.50
2023-04-17T03:39:29.489Z,20.50
2023-04-17T03:41:56.564Z,20.50
2023-04-17T03:44:23.245Z,20.50
2023-04-17T03:46:50.552Z,20.50
2023-04-17T03:49:17.217Z,20.50
2023-04-17T03:51:44.086Z,20.50
2023-04-17T03:54:10.743Z,20.50
2023-04-17T03:56:37.454Z,20.50
2023-04-17T03:59:07.108Z,20.50
2023-04-17T04:01:34.135Z,20.50
2023-04-17T04:04:01.756Z,20.60
2023-04-17T04:06:29.705Z,20.60
2023-04-17T04:08:57.243Z,20.50
2023-04-17T04:11:23.851Z,20.50
2023-04-17T04:13:50.751Z,20.60
2023-04-17T04:16:17.597Z,20.50
2023-04-17T04:18:44.370Z,20.50
2023-04-17T04:21:12.188Z,20.50
2023-04-17T04:23:41.217Z,20.60
2023-04-17T04:26:07.929Z,20.60
2023-04-17T04:28:34.580Z,20.60
2023-04-17T04:31:02.606Z,20.60
2023-04-17T04:33:29.921Z,20.60
2023-04-17T04:36:00.864Z,20.60
2023-04-17T04:38:31.122Z,20.60
2023-04-17T04:41:10.157Z,20.60
2023-04-17T04:43:37.291Z,20.70
2023-04-17T04:46:04.177Z,20.70
2023-04-17T04:48:30.794Z,20.70
2023-04-17T04:50:57.452Z,20.70
2023-04-17T04:53:24.672Z,20.80
2023-04-17T04:55:51.277Z,20.80
2023-04-17T04:58:17.939Z,20.80
2023-04-17T05:00:44.749Z,20.80
2023-04-17T05:03:11.660Z,20.80
2023-04-17T05:05:38.600Z,20.80
2023-04-17T05:08:05.580Z,20.80
2023-04-17T05:10:32.253Z,20.60
2023-04-17T05:12:58.879Z,20.60
2023-04-17T05:15:25.611Z,20.60
2023-04-17T05:17:52.224Z,20.60
2023-04-17T05:20:19.002Z,20.60
2023-04-17T05:22:46.672Z,20.60
2023-04-17T05:25:13.357Z,20.60
2023-04-17T05:27:39.917Z,20.60
2023-04-17T05:30:07.230Z,20.60
2023-04-17T05:32:35.020Z,20.60
2023-04-17T05:35:01.720Z,20.60
2023-04-17T05:37:28.316Z,20.60
2023-04-17T05:39:54.936Z,20.60
2023-04-17T05:42:21.599Z,20.60
2023-04-17T05:44:48.280Z,20.60
2023-04-17T05:47:14.925Z,20.60
2023-04-17T05:49:42.393Z,20.60
2023-04-17T05:52:09.098Z,20.60
2023-04-17T05:54:35.666Z,20.60
2023-04-17T05:57:03.439Z,20.60
2023-04-17T05:59:30.076Z,20.60
2023-04-17T06:01:59.431Z,20.60
2023-04-17T06:04:26.697Z,20.60
2023-04-17T06:06:53.614Z,20.60
2023-04-17T06:09:20.240Z,20.60
2023-04-17T06:11:46.796Z,20.60
2023-04-17T06:14:13.495Z,20.60
2023-04-17T06:16:40.433Z,20.60
2023-04-17T06:19:07.066Z,20.60
2023-04-17T06:21:33.669Z,20.60
2023-04-17T06:24:00.329Z,20.60
2023-04-17T06:26:27.000Z,20.60
2023-04-17T06:28:54.678Z,20.60
2023-04-17T06:31:21.316Z,20.60
2023-04-17T06:33:49.899Z,20.60
2023-04-17T06:36:16.756Z,20.60
2023-04-17T06:38:43.413Z,20.50
2023-04-17T06:41:10.148Z,20.60
2023-04-17T06:43:36.774Z,20.60
2023-04-17T06:46:03.447Z,20.60
2023-04-17T06:48:30.218Z,20.60
2023-04-17T06:50:56.817Z,20.60
2023-04-17T06:53:23.412Z,20.60
2023-04-17T06:55:50.194Z,20.60
2023-04-17T06:58:16.874Z,20.60
2023-04-17T07:00:43.619Z,20.60
2023-04-17T07:03:11.185Z,20.50
2023-04-17T07:05:37.849Z,20.60
2023-04-17T07:08:04.665Z,20.60
2023-04-17T07:10:31.282Z,20.60
2023-04-17T07:12:57.973Z,20.60
2023-04-17T07:15:24.839Z,20.50
2023-04-17T07:17:51.544Z,20.50
2023-04-17T07:20:18.313Z,20.50
2023-04-17T07:22:44.895Z,20.50
2023-04-17T07:25:11.542Z,20.50
2023-04-17T07:27:39.327Z,20.50
2023-04-17T07:30:08.071Z,20.50
2023-04-17T07:32:36.129Z,20.50
2023-04-17T07:35:02.928Z,20.50
2023-04-17T07:37:29.573Z,20.50
2023-04-17T07:39:56.188Z,20.50
2023-04-17T07:42:22.797Z,20.50
2023-04-17T07:44:49.576Z,20.50
2023-04-17T07:47:16.393Z,20.50
2023-04-17T07:49:46.455Z,20.50
2023-04-17T07:52:15.185Z,20.50
2023-04-17T07:54:41.884Z,20.50
2023-04-17T07:57:08.518Z,20.50
2023-04-17T07:59:36.898Z,20.50
2023-04-17T08:02:03.833Z,20.50
2023-04-17T08:04:30.895Z,20.50
2023-04-17T08:06:57.829Z,20.50
2023-04-17T08:09:24.922Z,20.50
2023-04-17T08:11:57.682Z,20.50
2023-04-17T08:14:25.180Z,20.50
2023-04-17T08:16:52.158Z,20.50
2023-04-17T08:19:19.017Z,20.50
2023-04-17T08:21:47.717Z,20.50
2023-04-17T08:24:14.513Z,20.50
2023-04-17T08:26:41.451Z,20.50
2023-04-17T08:29:08.176Z,20.50
2023-04-17T08:31:39.789Z,20.50
2023-04-17T08:34:14.455Z,20.50
2023-04-17T08:36:43.044Z,20.50
2023-04-17T08:39:12.133Z,20.50
2023-04-17T08:41:47.002Z,20.50
2023-04-17T08:44:15.452Z,20.50
2023-04-17T08:46:42.364Z,20.50
2023-04-17T08:49:09.135Z,20.50
2023-04-17T08:51:35.838Z,20.50
2023-04-17T08:54:02.440Z,20.50
2023-04-17T08:56:29.430Z,20.50
2023-04-17T08:58:56.003Z,20.50
2023-04-17T09:01:22.722Z,20.50
2023-04-17T09:03:52.032Z,20.50
2023-04-17T09:06:19.076Z,20.50
2023-04-17T09:08:56.814Z,20.50
2023-04-17T09:11:23.566Z,20.50
2023-04-17T09:13:50.264Z,20.50
2023-04-17T09:16:19.489Z,20.50
2023-04-17T09:18:47.465Z,20.50
2023-04-17T09:21:16.598Z,20.50
2023-04-17T09:23:55.476Z,20.50
2023-04-17T09:26:26.845Z,20.50
2023-04-17T09:29:13.765Z,20.50
2023-04-17T09:31:42.873Z,20.50
2023-04-17T09:34:13.732Z,20.50
2023-04-17T09:36:43.102Z,20.50
2023-04-17T09:39:21.217Z,20.50
2023-04-17T09:41:48.073Z,20.50
2023-04-17T09:44:27.996Z,20.50
2023-04-17T09:46:55.790Z,20.50
2023-04-17T09:49:39.652Z,20.50
2023-04-17T09:52:06.734Z,20.50
2023-04-17T09:54:37.561Z,20.50
2023-04-17T09:57:08.311Z,20.50
2023-04-17T09:59:45.166Z,20.50
2023-04-17T10:02:19.924Z,20.50
2023-04-17T10:04:47.552Z,20.50
2023-04-17T10:07:14.393Z,20.50
2023-04-17T10:09:42.216Z,20.50
2023-04-17T10:12:14.880Z,20.50
2023-04-17T10:14:46.636Z,20.50
2023-04-17T10:17:31.861Z,20.50
2023-04-17T10:20:23.041Z,20.50
2023-04-17T10:22:56.194Z,20.50
2023-04-17T10:25:27.253Z,20.50
2023-04-17T10:27:54.979Z,20.50
2023-04-17T10:30:22.935Z,20.50
2023-04-17T10:33:21.599Z,20.50
2023-04-17T10:35:48.709Z,20.50
2023-04-17T10:38:16.264Z,20.50
2023-04-17T10:40:44.250Z,20.50
2023-04-17T10:43:26.167Z,20.50
2023-04-17T10:46:03.566Z,20.50
2023-04-17T10:48:34.722Z,20.50
2023-04-17T10:51:22.669Z,20.50
2023-04-17T10:53:57.038Z,20.50
2023-04-17T10:56:25.794Z,20.50
2023-04-17T10:59:00.489Z,20.50
2023-04-17T11:01:30.578Z,20.50
2023-04-17T11:03:59.756Z,20.50
2023-04-17T11:06:28.852Z,20.50
2023-04-17T11:08:57.489Z,20.50
2023-04-17T11:11:35.137Z,20.50
2023-04-17T11:14:15.576Z,20.50
2023-04-17T11:16:44.247Z,20.50
2023-04-17T11:19:21.630Z,20.50
2023-04-17T11:21:49.854Z,20.50
2023-04-17T11:24:27.202Z,20.50
2023-04-17T11:26:54.505Z,20.50
2023-04-17T11:29:22.564Z,20.50
2023-04-17T11:31:52.682Z,20.50
2023-04-17T11:34:20.024Z,20.50
2023-04-17T11:36:54.806Z,20.50
2023-04-17T11:39:23.387Z,20.50
2023-04-17T11:41:51.968Z,20.50
2023-04-17T11:44:22.380Z,20.50
2023-04-17T11:46:56.760Z,20.50
2023-04-17T11:49:31.467Z,20.50
2023-04-17T11:52:02.028Z,20.50
2023-04-17T11:54:38.518Z,20.50
2023-04-17T11:57:10.776Z,20.50
2023-04-17T11:59:39.684Z,20.50
2023-04-17T12:02:07.595Z,20.50
2023-04-17T12:04:36.408Z,20.50
2023-04-17T12:07:08.127Z,20.50
2023-04-17T12:09:35.807Z,20.50
2023-04-17T12:12:05.671Z,20.50
2023-04-17T12:14:32.815Z,20.40
2023-04-17T12:16:59.849Z,20.40
2023-04-17T12:19:31.647Z,20.50
2023-04-17T12:21:59.232Z,20.50
2023-04-17T12:24:26.097Z,20.50
2023-04-17T12:26:52.919Z,20.40
2023-04-17T12:29:26.407Z,20.40
2023-04-17T12:32:00.407Z,20.50
2023-04-17T12:34:28.014Z,20.40
2023-04-17T12:36:54.873Z,20.50
2023-04-17T12:39:21.527Z,20.40
2023-04-17T12:41:48.167Z,20.40
2023-04-17T12:44:14.980Z,20.40
2023-04-17T12:46:42.007Z,20.40
2023-04-17T12:49:08.985Z,20.40
2023-04-17T12:51:37.974Z,20.40
2023-04-17T12:54:04.968Z,20.40
2023-04-17T12:56:32.149Z,20.40
2023-04-17T12:59:00.697Z,20.40
2023-04-17T13:01:28.832Z,20.40
2023-04-17T13:03:55.726Z,20.40
2023-04-17T13:06:22.589Z,20.40
2023-04-17T13:08:49.208Z,20.40
2023-04-17T13:11:16.291Z,20.40
2023-04-17T13:13:42.894Z,20.40
2023-04-17T13:16:10.546Z,20.40
2023-04-17T13:18:37.571Z,20.40
2023-04-17T13:21:04.272Z,20.40
2023-04-17T13:23:31.185Z,20.40
2023-04-17T13:25:57.853Z,20.40
2023-04-17T13:28:24.534Z,20.40
2023-04-17T13:30:51.242Z,20.40
2023-04-17T13:33:17.943Z,20.40
2023-04-17T13:35:44.656Z,20.40
2023-04-17T13:38:11.319Z,20.40
2023-04-17T13:40:38.501Z,20.40
2023-04-17T13:43:06.613Z,20.40
2023-04-17T13:45:33.306Z,20.40
2023-04-17T13:48:00.316Z,20.40
2023-04-17T13:50:27.245Z,20.40
2023-04-17T13:52:53.904Z,20.40
2023-04-17T13:55:20.541Z,20.40
2023-04-17T13:57:47.234Z,20.40
2023-04-17T14:00:14.653Z,20.40
2023-04-17T14:02:42.604Z,20.40
2023-04-17T14:05:09.952Z,20.40
2023-04-17T14:07:37.690Z,20.40
2023-04-17T14:10:04.669Z,20.40
2023-04-17T14:12:31.321Z,20.40
2023-04-17T14:14:58.297Z,20.40
2023-04-17T14:17:25.470Z,20.40
2023-04-17T14:19:52.898Z,20.40
2023-04-17T14:22:20.034Z,20.40
2023-04-17T14:24:46.709Z,20.40
2023-04-17T14:27:13.334Z,20.40
2023-04-17T14:29:40.077Z,20.40
2023-04-17T14:32:06.681Z,20.40
2023-04-17T14:34:33.294Z,20.40
2023-04-17T14:37:00.309Z,20.40
2023-04-17T14:39:28.003Z,20.40
2023-04-17T14:41:58.959Z,20.40
2023-04-17T14:44:27.264Z,20.40
2023-04-17T14:46:54.456Z,20.40
2023-04-17T14:49:21.080Z,20.40
2023-04-17T14:51:47.748Z,20.40
2023-04-17T14:54:15.544Z,20.40
2023-04-17T14:56:42.458Z,20.40
2023-04-17T14:59:09.077Z,20.40
2023-04-17T15:01:35.679Z,20.40
2023-04-17T15:04:03.670Z,20.40
2023-04-17T15:06:30.507Z,20.40
2023-04-17T15:08:57.186Z,20.40
2023-04-17T15:11:23.927Z,20.40
2023-04-17T15:13:50.678Z,20.40
2023-04-17T15:16:17.323Z,20.40
2023-04-17T15:18:43.958Z,20.40
2023-04-17T15:21:10.838Z,20.40
2023-04-17T15:23:37.773Z,20.40
2023-04-17T15:26:04.670Z,20.40
2023-04-17T15:28:31.704Z,20.40
2023-04-17T15:30:58.288Z,20.40
2023-04-17T15:33:24.926Z,20.40
2023-04-17T15:35:58.492Z,20.40
2023-04-17T15:38:28.448Z,20.40
2023-04-17T15:40:55.757Z,20.40
2023-04-17T15:43:22.429Z,20.40
2023-04-17T15:45:49.380Z,20.40
2023-04-17T15:48:16.229Z,20.40
2023-04-17T15:50:42.964Z,20.40
2023-04-17T15:53:09.971Z,20.40
2023-04-17T15:55:36.997Z,20.40
2023-04-17T15:58:04.037Z,20.40
2023-04-17T16:00:31.276Z,20.40
2023-04-17T16:02:58.017Z,20.40
2023-04-17T16:05:24.830Z,20.40
2023-04-17T16:07:51.462Z,20.40
2023-04-17T16:10:18.860Z,20.40
2023-04-17T16:12:46.273Z,20.40
2023-04-17T16:15:17.517Z,20.40
2023-04-17T16:17:45.444Z,20.40
2023-04-17T16:20:12.696Z,20.40
2023-04-17T16:22:39.321Z,20.40
2023-04-17T16:25:06.673Z,20.40
2023-04-17T16:27:34.201Z,20.30
2023-04-17T16:30:02.307Z,20.40
2023-04-17T16:32:29.057Z,20.40
2023-04-17T16:34:55.799Z,20.40
2023-04-17T16:37:22.497Z,20.30
2023-04-17T16:39:50.332Z,20.30
2023-04-17T16:42:17.192Z,20.40
2023-04-17T16:44:46.842Z,20.30
2023-04-17T16:47:14.699Z,20.30
2023-04-17T16:49:42.212Z,20.30
2023-04-17T16:52:09.069Z,20.30
2023-04-17T16:54:35.732Z,20.30
2023-04-17T16:57:02.588Z,20.30
2023-04-17T16:59:29.294Z,20.30
2023-04-17T17:01:56.034Z,20.30
2023-04-17T17:04:22.833Z,20.30
2023-04-17T17:06:49.656Z,20.30
2023-04-17T17:09:16.321Z,20.30
2023-04-17T17:11:42.912Z,20.30
2023-04-17T17:14:09.500Z,20.30
2023-04-17T17:16:36.679Z,20.30
2023-04-17T17:19:03.686Z,20.30
2023-04-17T17:21:31.088Z,20.30
2023-04-17T17:23:57.811Z,20.30
2023-04-17T17:26:24.934Z,20.30
2023-04-17T17:28:53.154Z,20.30
2023-04-17T17:31:20.303Z,20.30
2023-04-17T17:33:50.352Z,20.30
2023-04-17T17:36:17.337Z,20.30
2023-04-17T17:38:44.367Z,20.30
2023-04-17T17:41:11.186Z,20.00
2023-04-17T17:43:37.944Z,20.00
2023-04-17T17:46:04.699Z,20.10
2023-04-17T17:48:31.331Z,20.20
2023-04-17T17:50:58.140Z,20.20
2023-04-17T17:53:26.957Z,20.20
2023-04-17T17:55:55.019Z,20.20
2023-04-17T17:58:21.932Z,20.20
2023-04-17T18:00:50.072Z,20.30
2023-04-17T18:03:17.274Z,20.20
2023-04-17T18:05:45.123Z,20.30
2023-04-17T18:08:11.844Z,20.20
2023-04-17T18:10:38.920Z,20.20
2023-04-17T18:13:05.635Z,20.20
2023-04-17T18:15:32.313Z,20.20
2023-04-17T18:17:58.992Z,19.50
2023-04-17T18:20:25.687Z,19.50
2023-04-17T18:22:52.324Z,19.70
2023-04-17T18:25:19.110Z,19.80
2023-04-17T18:27:45.714Z,19.90
2023-04-17T18:30:12.874Z,19.90
2023-04-17T18:32:39.531Z,20.00
2023-04-17T18:35:06.722Z,20.10
2023-04-17T18:37:33.395Z,20.20
2023-04-17T18:40:00.170Z,20.20
2023-04-17T18:42:26.790Z,20.20
2023-04-17T18:44:53.482Z,20.30
2023-04-17T18:47:20.303Z,20.30
2023-04-17T18:49:47.394Z,20.40
2023-04-17T18:52:14.126Z,20.40
2023-04-17T18:54:41.004Z,20.50
2023-04-17T18:57:07.625Z,20.50
2023-04-17T18:59:34.454Z,20.50
2023-04-17T19:02:01.145Z,20.60
2023-04-17T19:04:29.433Z,20.60
2023-04-17T19:06:58.018Z,20.90
2023-04-17T19:09:25.283Z,20.60
2023-04-17T19:11:52.072Z,20.60
2023-04-17T19:14:18.726Z,20.60
2023-04-17T19:16:47.146Z,20.50
2023-04-17T19:19:15.450Z,20.60
2023-04-17T19:21:42.264Z,20.60
2023-04-17T19:24:09.099Z,20.60
2023-04-17T19:26:36.800Z,20.60
2023-04-17T19:29:04.657Z,20.60
2023-04-17T19:31:32.961Z,20.60
2023-04-17T19:34:00.259Z,20.60
2023-04-17T19:36:27.442Z,20.50
2023-04-17T19:38:59.525Z,20.50
2023-04-17T19:41:26.534Z,20.50
2023-04-17T19:43:55.985Z,20.50
2023-04-17T19:46:23.712Z,20.40
2023-04-17T19:48:52.174Z,20.40
2023-04-17T19:51:18.826Z,20.40
2023-04-17T19:53:46.570Z,20.40
2023-04-17T19:56:13.312Z,20.40
2023-04-17T19:58:41.304Z,20.40
2023-04-17T20:01:08.253Z,20.40
2023-04-17T20:03:36.240Z,20.40
2023-04-17T20:06:03.445Z,20.40
2023-04-17T20:08:30.212Z,20.40
2023-04-17T20:10:56.869Z,20.60
2023-04-17T20:13:23.693Z,20.40
2023-04-17T20:15:50.296Z,20.60
2023-04-17T20:18:17.712Z,20.70
2023-04-17T20:20:44.335Z,20.80
2023-04-17T20:23:11.018Z,20.80
2023-04-17T20:25:37.699Z,20.70
2023-04-17T20:28:04.711Z,20.60
2023-04-17T20:30:31.453Z,20.60
2023-04-17T20:32:58.248Z,20.60
2023-04-17T20:35:25.091Z,20.50
2023-04-17T20:37:52.400Z,20.50
2023-04-17T20:40:19.477Z,20.50
2023-04-17T20:42:47.062Z,20.60
2023-04-17T20:45:14.003Z,20.60
2023-04-17T20:47:55.849Z,20.60
2023-04-17T20:50:24.133Z,20.50
2023-04-17T20:52:50.905Z,20.50
2023-04-17T20:55:19.621Z,20.50
2023-04-17T20:57:46.761Z,20.50
2023-04-17T21:00:13.768Z,20.50
2023-04-17T21:02:40.738Z,20.40
2023-04-17T21:05:08.151Z,20.40
2023-04-17T21:07:35.435Z,20.40
2023-04-17T21:10:02.499Z,20.40
2023-04-17T21:12:29.205Z,20.40
2023-04-17T21:14:55.811Z,20.40
2023-04-17T21:17:22.480Z,20.40
2023-04-17T21:19:49.295Z,20.40
2023-04-17T21:22:16.117Z,20.40
2023-04-17T21:24:42.788Z,20.40
2023-04-17T21:27:10.205Z,20.40
2023-04-17T21:29:37.032Z,20.40
2023-04-17T21:32:04.193Z,20.40
2023-04-17T21:34:30.904Z,20.40
2023-04-17T21:36:59.679Z,20.40
2023-04-17T21:39:26.495Z,20.40
2023-04-17T21:41:53.076Z,20.40
2023-04-17T21:44:19.678Z,20.40
2023-04-17T21:46:46.438Z,20.40
2023-04-17T21:49:13.356Z,20.40
2023-04-17T21:51:40.794Z,20.40
2023-04-17T21:54:08.209Z,20.40
2023-04-17T21:56:35.075Z,20.40
2023-04-17T21:59:02.020Z,20.40
2023-04-17T22:01:28.680Z,20.40
2023-04-17T22:03:55.428Z,20.40
2023-04-17T22:06:22.181Z,20.40
2023-04-17T22:08:48.874Z,20.40
2023-04-17T22:11:15.462Z,20.40
2023-04-17T22:13:42.753Z,20.40
2023-04-17T22:16:09.481Z,20.40
2023-04-17T22:18:36.200Z,20.30
2023-04-17T22:21:03.485Z,20.40
2023-04-17T22:23:30.456Z,20.40
2023-04-17T22:25:57.044Z,20.40
2023-04-17T22:28:23.642Z,20.40
2023-04-17T22:30:51.960Z,20.40
2023-04-17T22:33:18.635Z,20.40
2023-04-17T22:35:45.309Z,20.40
2023-04-17T22:38:12.032Z,20.40
2023-04-17T22:40:38.740Z,20.40
2023-04-17T22:43:05.662Z,20.40
2023-04-17T22:45:32.705Z,20.40
2023-04-17T22:47:59.534Z,20.40
2023-04-17T22:50:26.149Z,20.40
2023-04-17T22:52:52.778Z,20.40
2023-04-17T22:55:19.482Z,20.40
2023-04-17T22:57:46.405Z,20.40
2023-04-17T23:00:13.821Z,20.40
2023-04-17T23:02:40.552Z,20.40
2023-04-17T23:05:08.564Z,20.40
2023-04-17T23:07:35.332Z,20.40
2023-04-17T23:10:02.027Z,20.40
2023-04-17T23:12:28.711Z,20.40
2023-04-17T23:14:55.407Z,20.40
2023-04-17T23:17:22.057Z,20.40
2023-04-17T23:19:48.761Z,20.40
2023-04-17T23:22:15.416Z,20.40
2023-04-17T23:24:42.064Z,20.40
2023-04-17T23:27:08.709Z,20.40
2023-04-17T23:29:35.396Z,20.40
2023-04-17T23:32:04.391Z,20.40
2023-04-17T23:34:31.111Z,20.40
2023-04-17T23:36:57.771Z,20.40
2023-04-17T23:39:24.837Z,20.40
2023-04-17T23:41:51.578Z,20.40
2023-04-17T23:44:18.218Z,20.40
2023-04-17T23:46:44.968Z,20.40
2023-04-17T23:49:11.628Z,20.40
2023-04-17T23:51:38.208Z,20.40
2023-04-17T23:54:04.850Z,20.40
2023-04-17T23:56:31.489Z,20.40
2023-04-17T23:58:58.115Z,20.40
